createdAt,value
2023-03-01T00:01:17.333Z,102226.31
2023-03-01T00:03:44.653Z,102216.69
2023-03-01T00:06:12.106Z,102216.69
2023-03-01T00:08:39.286Z,102216.69
2023-03-01T00:11:19.359Z,102214.91
2023-03-01T00:13:47.937Z,102213.16
2023-03-01T00:16:18.273Z,102201.78
2023-03-01T00:18:45.520Z,102143.91
2023-03-01T00:21:13.585Z,102199.13
2023-03-01T00:23:42.820Z,102201.75
2023-03-01T00:26:13.925Z,102193.88
2023-03-01T00:28:42.124Z,102200.03
2023-03-01T00:31:21.247Z,102204.38
2023-03-01T00:33:48.573Z,102196.50
2023-03-01T00:36:16.471Z,102191.25
2023-03-01T00:38:46.318Z,102189.50
2023-03-01T00:41:15.846Z,102183.38
2023-03-01T00:43:43.376Z,102179.00
2023-03-01T00:46:16.960Z,102181.63
2023-03-01T00:48:44.858Z,102175.47
2023-03-01T00:51:13.150Z,102175.47
2023-03-01T00:53:40.842Z,102160.59
2023-03-01T00:56:09.781Z,102143.06
2023-03-01T00:58:37.190Z,102156.19
2023-03-01T01:01:33.470Z,102155.34
2023-03-01T01:04:04.544Z,102106.25
2023-03-01T01:06:35.405Z,102141.31
2023-03-01T01:09:03.492Z,102145.69
2023-03-01T01:11:31.137Z,102144.84
2023-03-01T01:14:00.443Z,102148.31
2023-03-01T01:16:29.131Z,102132.56
2023-03-01T01:18:57.710Z,102126.44
2023-03-01T01:21:25.573Z,102124.69
2023-03-01T01:23:52.882Z,102128.19
2023-03-01T01:26:25.242Z,102114.16
2023-03-01T01:28:52.783Z,102087.03
2023-03-01T01:31:20.555Z,102101.03
2023-03-01T01:33:48.150Z,102094.94
2023-03-01T01:36:15.177Z,102100.19
2023-03-01T01:38:43.461Z,102094.94
2023-03-01T01:41:12.501Z,102055.53
2023-03-01T01:43:48.059Z,102085.31
2023-03-01T01:46:35.117Z,102078.28
2023-03-01T01:49:15.033Z,102082.66
2023-03-01T01:51:45.545Z,102077.41
2023-03-01T01:54:25.798Z,102075.63
2023-03-01T01:57:07.439Z,102081.78
2023-03-01T01:59:35.455Z,102059.88
2023-03-01T02:02:05.004Z,102067.75
2023-03-01T02:04:34.094Z,102057.22
2023-03-01T02:07:15.117Z,102041.47
2023-03-01T02:09:46.296Z,102027.47
2023-03-01T02:12:14.960Z,102036.19
2023-03-01T02:14:42.096Z,102008.19
2023-03-01T02:17:09.162Z,102035.34
2023-03-01T02:20:14.394Z,102030.06
2023-03-01T02:22:44.413Z,102002.03
2023-03-01T02:25:20.104Z,102021.28
2023-03-01T02:28:08.812Z,102015.16
2023-03-01T02:30:36.848Z,102015.16
2023-03-01T02:33:05.586Z,102010.75
2023-03-01T02:35:39.675Z,102004.66
2023-03-01T02:38:09.841Z,102008.13
2023-03-01T02:40:39.232Z,101988.88
2023-03-01T02:43:10.002Z,102017.78
2023-03-01T02:45:37.011Z,102010.72
2023-03-01T02:48:04.208Z,102004.63
2023-03-01T02:50:31.329Z,102007.22
2023-03-01T02:53:01.018Z,101999.34
2023-03-01T02:55:28.891Z,101991.44
2023-03-01T02:57:58.068Z,102007.22
2023-03-01T03:00:29.682Z,101995.81
2023-03-01T03:02:58.325Z,101996.69
2023-03-01T03:05:29.687Z,101987.00
2023-03-01T03:08:00.286Z,101989.63
2023-03-01T03:10:33.898Z,101934.53
2023-03-01T03:13:04.662Z,101981.75
2023-03-01T03:15:32.555Z,101978.25
2023-03-01T03:18:00.134Z,101926.63
2023-03-01T03:20:29.792Z,101979.97
2023-03-01T03:22:59.245Z,101952.81
2023-03-01T03:25:28.642Z,101969.44
2023-03-01T03:28:00.248Z,101961.56
2023-03-01T03:30:30.785Z,101969.41
2023-03-01T03:32:59.609Z,101963.28
2023-03-01T03:35:32.202Z,101964.13
2023-03-01T03:38:07.496Z,101960.66
2023-03-01T03:40:42.159Z,101958.00
2023-03-01T03:43:15.716Z,101961.47
2023-03-01T03:45:42.774Z,101956.22
2023-03-01T03:48:11.184Z,101955.34
2023-03-01T03:50:42.226Z,101950.94
2023-03-01T03:53:13.193Z,101960.59
2023-03-01T03:55:40.457Z,101966.72
2023-03-01T03:58:10.767Z,101957.97
2023-03-01T04:00:44.313Z,101908.13
2023-03-01T04:03:13.058Z,101943.97
2023-03-01T04:05:41.550Z,101939.59
2023-03-01T04:08:09.522Z,101961.41
2023-03-01T04:10:42.467Z,101957.94
2023-03-01T04:13:14.171Z,101962.31
2023-03-01T04:15:41.369Z,101950.03
2023-03-01T04:18:09.655Z,101951.81
2023-03-01T04:20:37.144Z,101964.06
2023-03-01T04:23:21.050Z,101951.78
2023-03-01T04:25:56.094Z,101958.78
2023-03-01T04:28:37.890Z,101870.50
2023-03-01T04:31:14.603Z,101946.53
2023-03-01T04:33:43.250Z,101924.69
2023-03-01T04:36:11.202Z,101940.41
2023-03-01T04:38:39.321Z,101944.81
2023-03-01T04:41:11.810Z,101936.94
2023-03-01T04:43:39.187Z,101934.31
2023-03-01T04:46:10.377Z,101937.78
2023-03-01T04:48:42.234Z,101937.81
2023-03-01T04:51:09.607Z,101936.06
2023-03-01T04:53:39.746Z,101938.69
2023-03-01T04:56:07.364Z,101936.06
2023-03-01T04:58:34.699Z,101873.16
2023-03-01T05:01:01.678Z,101924.69
2023-03-01T05:03:29.157Z,101929.97
2023-03-01T05:06:00.600Z,101928.25
2023-03-01T05:08:28.061Z,101925.63
2023-03-01T05:10:55.475Z,101916.88
2023-03-01T05:13:22.845Z,101931.78
2023-03-01T05:15:55.462Z,101929.16
2023-03-01T05:18:26.906Z,101894.22
2023-03-01T05:21:05.063Z,101922.16
2023-03-01T05:23:33.596Z,101922.19
2023-03-01T05:26:02.080Z,101918.66
2023-03-01T05:28:29.506Z,101915.19
2023-03-01T05:30:57.139Z,101916.06
2023-03-01T05:33:25.094Z,101915.22
2023-03-01T05:35:53.814Z,101915.22
2023-03-01T05:38:21.714Z,101909.94
2023-03-01T05:40:49.910Z,101909.06
2023-03-01T05:43:17.869Z,101916.06
2023-03-01T05:45:45.581Z,101905.53
2023-03-01T05:48:13.659Z,101899.44
2023-03-01T05:50:43.767Z,101907.31
2023-03-01T05:53:13.494Z,101899.41
2023-03-01T05:55:41.148Z,101906.38
2023-03-01T05:58:15.589Z,101904.63
2023-03-01T06:00:43.946Z,101893.25
2023-03-01T06:03:13.490Z,101911.59
2023-03-01T06:05:41.613Z,101885.38
2023-03-01T06:08:11.023Z,101910.72
2023-03-01T06:10:38.133Z,101922.06
2023-03-01T06:13:06.245Z,101862.63
2023-03-01T06:15:33.122Z,101923.81
2023-03-01T06:18:00.382Z,101923.78
2023-03-01T06:20:29.324Z,101914.09
2023-03-01T06:22:56.858Z,101919.34
2023-03-01T06:25:25.577Z,101914.94
2023-03-01T06:27:53.651Z,101923.72
2023-03-01T06:30:22.444Z,101916.69
2023-03-01T06:32:50.241Z,101916.69
2023-03-01T06:35:19.082Z,101924.53
2023-03-01T06:37:48.056Z,101915.75
2023-03-01T06:40:16.027Z,101919.22
2023-03-01T06:42:45.242Z,101913.06
2023-03-01T06:45:12.678Z,101900.84
2023-03-01T06:47:39.945Z,101925.28
2023-03-01T06:50:07.634Z,101921.78
2023-03-01T06:52:34.730Z,101919.09
2023-03-01T06:55:01.731Z,101926.09
2023-03-01T06:57:29.193Z,101926.97
2023-03-01T06:59:56.467Z,101920.81
2023-03-01T07:02:23.848Z,101906.81
2023-03-01T07:04:51.724Z,101900.72
2023-03-01T07:07:19.127Z,101900.75
2023-03-01T07:09:47.054Z,101865.75
2023-03-01T07:12:14.198Z,101933.00
2023-03-01T07:14:41.307Z,101932.09
2023-03-01T07:17:08.588Z,101918.91
2023-03-01T07:19:35.578Z,101924.16
2023-03-01T07:22:02.576Z,101868.22
2023-03-01T07:24:29.517Z,101880.44
2023-03-01T07:26:56.603Z,101917.06
2023-03-01T07:29:23.570Z,101924.06
2023-03-01T07:31:50.528Z,101911.75
2023-03-01T07:34:17.590Z,101908.22
2023-03-01T07:36:46.345Z,101909.94
2023-03-01T07:39:13.370Z,101902.88
2023-03-01T07:41:40.376Z,101888.06
2023-03-01T07:44:07.558Z,101902.84
2023-03-01T07:46:34.577Z,101900.16
2023-03-01T07:49:01.784Z,101875.66
2023-03-01T07:51:28.797Z,101893.09
2023-03-01T07:53:55.742Z,101884.31
2023-03-01T07:56:23.153Z,101886.00
2023-03-01T07:58:51.220Z,101873.72
2023-03-01T08:01:21.154Z,101888.59
2023-03-01T08:03:48.650Z,101878.00
2023-03-01T08:06:17.583Z,101884.13
2023-03-01T08:08:45.013Z,101874.47
2023-03-01T08:11:13.492Z,101885.81
2023-03-01T08:13:40.693Z,101890.16
2023-03-01T08:16:11.287Z,101895.38
2023-03-01T08:18:38.528Z,101894.47
2023-03-01T08:21:16.733Z,101892.66
2023-03-01T08:23:44.505Z,101885.59
2023-03-01T08:26:18.210Z,101842.78
2023-03-01T08:28:46.309Z,101895.19
2023-03-01T08:31:22.280Z,101891.63
2023-03-01T08:33:56.537Z,101877.53
2023-03-01T08:36:29.071Z,101881.88
2023-03-01T08:38:56.637Z,101877.41
2023-03-01T08:41:23.821Z,101868.69
2023-03-01T08:43:51.395Z,101879.09
2023-03-01T08:46:18.679Z,101888.69
2023-03-01T08:48:45.726Z,101891.28
2023-03-01T08:51:40.562Z,101878.94
2023-03-01T08:54:31.295Z,101864.75
2023-03-01T08:57:18.249Z,101865.59
2023-03-01T09:00:05.357Z,101863.81
2023-03-01T09:02:52.196Z,101866.41
2023-03-01T09:05:39.072Z,101875.06
2023-03-01T09:08:26.040Z,101863.63
2023-03-01T09:11:13.189Z,101866.16
2023-03-01T09:14:00.537Z,101843.34
2023-03-01T09:16:47.527Z,101854.56
2023-03-01T09:19:34.906Z,101846.56
2023-03-01T09:22:21.884Z,101857.94
2023-03-01T09:25:08.775Z,101863.13
2023-03-01T09:27:55.719Z,101862.19
2023-03-01T09:30:43.045Z,101847.28
2023-03-01T09:33:31.147Z,101864.66
2023-03-01T09:36:24.128Z,101870.72
2023-03-01T09:39:11.419Z,101879.47
2023-03-01T09:42:15.142Z,101878.47
2023-03-01T09:45:20.175Z,101878.41
2023-03-01T09:48:07.258Z,101875.69
2023-03-01T09:51:02.854Z,101877.31
2023-03-01T09:53:54.160Z,101844.78
2023-03-01T09:56:49.689Z,101865.53
2023-03-01T09:59:55.748Z,101859.25
2023-03-01T10:02:55.065Z,101826.88
2023-03-01T10:06:08.475Z,101874.75
2023-03-01T10:09:15.851Z,101861.38
2023-03-01T10:12:07.915Z,101881.44
2023-03-01T10:15:05.466Z,101874.16
2023-03-01T10:17:59.760Z,101882.72
2023-03-01T10:20:51.134Z,101875.50
2023-03-01T10:23:38.131Z,101880.63
2023-03-01T10:26:33.467Z,101869.00
2023-03-01T10:29:28.175Z,101818.38
2023-03-01T10:32:15.490Z,101861.69
2023-03-01T10:35:02.392Z,101882.66
2023-03-01T10:37:49.358Z,101858.78
2023-03-01T10:40:36.424Z,101855.06
2023-03-01T10:43:26.021Z,101855.72
2023-03-01T10:46:13.038Z,101867.09
2023-03-01T10:49:00.262Z,101859.00
2023-03-01T10:51:47.196Z,101877.38
2023-03-01T10:54:51.728Z,101876.34
2023-03-01T10:57:59.430Z,101856.66
2023-03-01T11:00:47.034Z,101856.44
2023-03-01T11:03:37.736Z,101855.41
2023-03-01T11:06:26.170Z,101858.69
2023-03-01T11:09:13.167Z,101862.03
2023-03-01T11:12:00.224Z,101855.69
2023-03-01T11:14:50.932Z,101860.78
2023-03-01T11:17:57.101Z,101871.91
2023-03-01T11:20:53.205Z,101872.53
2023-03-01T11:23:42.769Z,101860.19
2023-03-01T11:26:30.840Z,101872.97
2023-03-01T11:29:23.245Z,101857.28
2023-03-01T11:32:11.598Z,101890.16
2023-03-01T11:35:08.580Z,101868.72
2023-03-01T11:38:11.798Z,101887.06
2023-03-01T11:41:04.653Z,101886.81
2023-03-01T11:44:10.162Z,101890.09
2023-03-01T11:47:22.608Z,101876.56
2023-03-01T11:50:28.595Z,101876.28
2023-03-01T11:53:49.586Z,101878.69
2023-03-01T11:56:45.179Z,101875.72
2023-03-01T12:00:01.057Z,101874.72
2023-03-01T12:03:06.936Z,101872.56
2023-03-01T12:06:31.945Z,101874.97
2023-03-01T12:09:36.385Z,101874.88
2023-03-01T12:12:23.201Z,101871.81
2023-03-01T12:15:22.242Z,101870.69
2023-03-01T12:18:34.146Z,101869.56
2023-03-01T12:21:31.209Z,101873.72
2023-03-01T12:24:48.900Z,101881.47
2023-03-01T12:27:42.771Z,101884.78
2023-03-01T12:30:48.458Z,101881.06
2023-03-01T12:33:53.850Z,101886.22
2023-03-01T12:36:40.796Z,101890.50
2023-03-01T12:39:33.487Z,101893.03
2023-03-01T12:42:45.264Z,101885.78
2023-03-01T12:45:54.700Z,101896.38
2023-03-01T12:49:01.920Z,101896.25
2023-03-01T12:51:52.561Z,101901.53
2023-03-01T12:54:49.456Z,101900.66
2023-03-01T12:58:04.114Z,101900.47
2023-03-01T13:01:29.212Z,101892.44
2023-03-01T13:04:35.630Z,101883.53
2023-03-01T13:07:36.935Z,101904.78
2023-03-01T13:10:41.022Z,101894.09
2023-03-01T13:13:41.418Z,101894.09
2023-03-01T13:16:57.532Z,101891.44
2023-03-01T13:19:49.834Z,101890.53
2023-03-01T13:22:56.950Z,101847.13
2023-03-01T13:25:43.894Z,101884.66
2023-03-01T13:28:55.337Z,101884.41
2023-03-01T13:31:42.315Z,101895.00
2023-03-01T13:35:02.118Z,101887.00
2023-03-01T13:37:51.891Z,101834.88
2023-03-01T13:40:41.761Z,101897.47
2023-03-01T13:43:50.144Z,101887.66
2023-03-01T13:46:42.370Z,101891.16
2023-03-01T13:49:46.300Z,101878.56
2023-03-01T13:52:59.245Z,101885.59
2023-03-01T13:56:07.422Z,101876.66
2023-03-01T13:59:04.955Z,101881.75
2023-03-01T14:01:56.994Z,101881.69
2023-03-01T14:04:54.298Z,101879.84
2023-03-01T14:07:43.518Z,101872.75
2023-03-01T14:10:33.860Z,101881.75
2023-03-01T14:13:30.166Z,101887.91
2023-03-01T14:16:35.783Z,101888.03
2023-03-01T14:19:33.627Z,101880.03
2023-03-01T14:22:31.841Z,101879.31
2023-03-01T14:25:26.040Z,101868.72
2023-03-01T14:28:42.759Z,101866.13
2023-03-01T14:31:53.869Z,101865.25
2023-03-01T14:34:44.269Z,101833.19
2023-03-01T14:37:43.935Z,101865.47
2023-03-01T14:40:46.499Z,101868.25
2023-03-01T14:43:41.310Z,101857.78
2023-03-01T14:46:38.728Z,101856.91
2023-03-01T14:49:32.085Z,101859.69
2023-03-01T14:52:27.206Z,101853.78
2023-03-01T14:55:15.447Z,101862.59
2023-03-01T14:58:06.022Z,101868.88
2023-03-01T15:00:54.984Z,101857.44
2023-03-01T15:03:55.821Z,101857.56
2023-03-01T15:06:44.026Z,101866.59
2023-03-01T15:09:39.266Z,101857.84
2023-03-01T15:12:48.490Z,101854.44
2023-03-01T15:15:43.009Z,101850.13
2023-03-01T15:18:39.961Z,101840.69
2023-03-01T15:21:50.810Z,101838.03
2023-03-01T15:24:40.723Z,101862.91
2023-03-01T15:27:39.763Z,101801.09
2023-03-01T15:30:27.314Z,101861.47
2023-03-01T15:33:40.899Z,101873.09
2023-03-01T15:37:03.578Z,101877.69
2023-03-01T15:40:13.861Z,101862.84
2023-03-01T15:43:00.698Z,101872.75
2023-03-01T15:45:49.929Z,101870.25
2023-03-01T15:48:40.221Z,101868.56
2023-03-01T15:51:34.411Z,101867.00
2023-03-01T15:54:25.039Z,101860.13
2023-03-01T15:57:12.131Z,101865.53
2023-03-01T15:59:58.934Z,101863.91
2023-03-01T16:02:46.141Z,101842.53
2023-03-01T16:05:40.754Z,101865.09
2023-03-01T16:08:27.803Z,101869.75
2023-03-01T16:11:14.779Z,101854.38
2023-03-01T16:14:01.869Z,101871.75
2023-03-01T16:16:48.670Z,101866.50
2023-03-01T16:19:36.514Z,101873.75
2023-03-01T16:22:23.318Z,101880.03
2023-03-01T16:25:10.331Z,101876.66
2023-03-01T16:27:57.212Z,101879.47
2023-03-01T16:30:44.296Z,101879.56
2023-03-01T16:33:33.774Z,101885.03
2023-03-01T16:36:27.271Z,101879.81
2023-03-01T16:39:14.127Z,101879.94
2023-03-01T16:42:00.973Z,101888.97
2023-03-01T16:44:47.876Z,101885.59
2023-03-01T16:47:34.763Z,101889.25
2023-03-01T16:50:22.042Z,101871.03
2023-03-01T16:53:08.891Z,101892.22
2023-03-01T16:55:56.321Z,101888.78
2023-03-01T16:58:43.241Z,101896.88
2023-03-01T17:01:35.870Z,101885.50
2023-03-01T17:04:22.829Z,101895.34
2023-03-01T17:07:10.055Z,101891.94
2023-03-01T17:09:58.470Z,101860.63
2023-03-01T17:12:45.520Z,101879.84
2023-03-01T17:15:32.379Z,101879.97
2023-03-01T17:18:19.250Z,101881.88
2023-03-01T17:21:06.224Z,101882.88
2023-03-01T17:23:54.698Z,101880.38
2023-03-01T17:26:41.495Z,101895.50
2023-03-01T17:29:28.442Z,101888.53
2023-03-01T17:32:15.680Z,101885.13
2023-03-01T17:35:02.622Z,101888.78
2023-03-01T17:37:49.594Z,101871.38
2023-03-01T17:40:36.591Z,101883.72
2023-03-01T17:43:23.645Z,101882.97
2023-03-01T17:46:10.600Z,101876.88
2023-03-01T17:48:58.178Z,101868.28
2023-03-01T17:51:45.050Z,101873.69
2023-03-01T17:54:32.352Z,101870.16
2023-03-01T17:57:19.824Z,101847.59
2023-03-01T18:00:06.983Z,101846.84
2023-03-01T18:02:58.369Z,101849.50
2023-03-01T18:05:45.653Z,101850.56
2023-03-01T18:08:32.575Z,101844.59
2023-03-01T18:11:20.519Z,101840.28
2023-03-01T18:14:07.549Z,101837.81
2023-03-01T18:16:54.660Z,101839.66
2023-03-01T18:19:41.556Z,101852.16
2023-03-01T18:22:28.924Z,101854.03
2023-03-01T18:25:15.725Z,101856.81
2023-03-01T18:28:02.755Z,101866.59
2023-03-01T18:30:49.636Z,101853.41
2023-03-01T18:33:36.508Z,101863.19
2023-03-01T18:36:24.876Z,101846.50
2023-03-01T18:39:12.087Z,101851.84
2023-03-01T18:41:58.955Z,101851.94
2023-03-01T18:44:46.248Z,101853.75
2023-03-01T18:47:33.393Z,101834.41
2023-03-01T18:50:20.363Z,101839.75
2023-03-01T18:53:07.196Z,101845.97
2023-03-01T18:55:58.481Z,101832.81
2023-03-01T18:58:45.340Z,101828.47
2023-03-01T19:01:38.236Z,101828.53
2023-03-01T19:04:25.989Z,101832.09
2023-03-01T19:07:12.890Z,101817.22
2023-03-01T19:09:40.348Z,101826.06
2023-03-01T19:12:07.720Z,101787.69
2023-03-01T19:14:34.855Z,101809.50
2023-03-01T19:17:01.822Z,101794.59
2023-03-01T19:19:28.820Z,101808.78
2023-03-01T19:22:05.271Z,101780.97
2023-03-01T19:24:32.975Z,101803.66
2023-03-01T19:26:59.964Z,101812.56
2023-03-01T19:29:46.850Z,101805.59
2023-03-01T19:32:33.934Z,101808.34
2023-03-01T19:35:20.769Z,101802.22
2023-03-01T19:38:07.842Z,101746.47
2023-03-01T19:40:56.397Z,101792.72
2023-03-01T19:43:44.233Z,101798.00
2023-03-01T19:46:32.123Z,101788.38
2023-03-01T19:49:19.220Z,101791.09
2023-03-01T19:52:06.100Z,101756.22
2023-03-01T19:54:58.252Z,101781.44
2023-03-01T19:57:54.362Z,101770.97
2023-03-01T20:00:41.834Z,101753.59
2023-03-01T20:03:28.711Z,101762.22
2023-03-01T20:06:15.886Z,101709.28
2023-03-01T20:09:12.342Z,101773.78
2023-03-01T20:12:07.529Z,101782.66
2023-03-01T20:14:54.386Z,101788.00
2023-03-01T20:17:42.766Z,101790.66
2023-03-01T20:20:30.654Z,101760.78
2023-03-01T20:23:17.827Z,101771.41
2023-03-01T20:26:05.532Z,101774.13
2023-03-01T20:28:52.734Z,101771.56
2023-03-01T20:31:41.416Z,101765.47
2023-03-01T20:34:28.440Z,101756.94
2023-03-01T20:37:15.339Z,101765.56
2023-03-01T20:40:02.406Z,101757.72
2023-03-01T20:42:49.341Z,101724.69
2023-03-01T20:45:36.333Z,101765.75
2023-03-01T20:48:23.246Z,101752.69
2023-03-01T20:51:10.513Z,101755.31
2023-03-01T20:53:57.536Z,101757.94
2023-03-01T20:56:44.741Z,101765.00
2023-03-01T20:59:32.734Z,101759.75
2023-03-01T21:02:19.842Z,101768.63
2023-03-01T21:05:06.769Z,101759.91
2023-03-01T21:07:53.897Z,101773.06
2023-03-01T21:10:40.824Z,101778.38
